Saturday, February 28, 2015
00:32 UTC
  |  Log In   |  Register Free
Airport Search:

Page Field Airport
(KFMY)

FAA data valid effective January 08, 2015 - March 05, 2015 (unless otherwise noted).

 
 
 
 
 
 
 
 
 
 
 
 
 
 

Current Aviation Weather for Page Field Airport (KFMY)

The most recent METAR observation for KFMY was updated at: 0011
METAR Summary (Translated METAR)
KFMY
272353Z 06009KT 10SM OVC013 15/13 A3016 RMK AO2 SLP214 T01500128 10178 20150 53009
KRSW
272353Z AUTO 05011KT 10SM FEW012 OVC019 15/12 A3016 RMK AO2 SLP212 T01500122 10178 20150 53005
(6.5 nm SE from KFMY)
KPGD
272353Z AUTO 05013KT 10SM OVC012 13/11 A3020 RMK AO2 SLP226 60000 T01330111 10167 20133 53007
(21.1 nm NW from KFMY)
TAF Summary (Translated TAF)
KFMY
272002Z 2720/2818 05010KT P6SM VCSH BKN015 OVC030 FM280200 05010KT P6SM VCSH SCT006 OVC020 FM281400 06012KT P6SM VCSH SCT005 OVC015
KRSW
(6.5 nm SE from KFMY)
272002Z 2720/2818 02008KT P6SM VCSH BKN015 OVC030 FM280200 05010KT P6SM VCSH SCT006 OVC020 FM281400 06012KT P6SM VCSH SCT005 OVC015
  Airport Weather Conditions for KFMY

 Current Weather at FMY
59° F
Overcast
Northeast winds at 10.4 mph
FMY NOAA Radar

Pressure: 30.16 in
Humidity: 87%
Wind: Northeast at 10.4 MPH (9 KT)
Dew Point: 55.0°F
Visibility: 10.00 mi


Airport Weather Forecast for KFMY

Translated METAR and TAF for KFMY
Translated METAR for KFMY (0031 UTC 28 February 2015)
found at http://aviationweather.gov/adds/metars/
 
METAR text: KFMY 272353Z 06009KT 10SM OVC013 15/13 A3016 RMK AO2 SLP214 T01500128 10178 20150 53009
Conditions at: KFMY (FORT MYERS , FL, US) observed 2353 UTC 27 February 2015
Temperature: 15.0°C (59°F)
Dewpoint: 12.8°C (55°F) [RH = 87%]
Pressure (altimeter): 30.16 inches Hg (1021.4 mb)
[Sea-level pressure: 1021.4 mb]
Winds: from the ENE (60 degrees) at 10 MPH (9 knots; 4.7 m/s)
Visibility: 10 or more miles (16+ km)
Ceiling: 1300 feet AGL
Clouds: overcast cloud deck at 1300 feet AGL
Weather: no significant weather observed at this time
Translated TAF for KFMY
Forecast for: KFMY (FORT MYERS , FL, US)
TAF Text: KFMY 272341Z 2800/2824 06012KT P6SM BKN015 OVC025
Forecast period: 0000 to 0200 UTC 28 February 2015
Forecast type: FROM: standard forecast or significant change
Winds: from the ENE (60 degrees) at 14 MPH (12 knots; 6.2 m/s)
Visibility: 6 or more miles (10+ km)
Ceiling: 1500 feet AGL
Clouds: broken clouds at 1500 feet AGL
overcast cloud deck at 2500 feet AGL
Weather: no significant weather forecast for this period
TAF Text: FM280200 04012KT P6SM SCT007 OVC015
Forecast period: 0200 to 1000 UTC 28 February 2015
Forecast type: FROM: standard forecast or significant change
Winds: from the NE (40 degrees) at 14 MPH (12 knots; 6.2 m/s)
Visibility: 6 or more miles (10+ km)
Ceiling: 1500 feet AGL
Clouds: scattered clouds at 700 feet AGL
overcast cloud deck at 1500 feet AGL
Weather: no significant weather forecast for this period
TAF Text: FM281000 05010KT 4SM BR VCSH SCT003 OVC007
Forecast period: 1000 to 1500 UTC 28 February 2015
Forecast type: FROM: standard forecast or significant change
Winds: from the NE (50 degrees) at 12 MPH (10 knots; 5.2 m/s)
Visibility: 4 miles (6 km)
Ceiling: 700 feet AGL
Clouds: scattered clouds at 300 feet AGL
overcast cloud deck at 700 feet AGL
Weather: BR VCSH  (mist, showers in vicinity)
TAF Text: FM281500 08009KT P6SM VCSH SCT025 OVC050
Forecast period: 1500 UTC 28 February 2015 to 0000 UTC 01 March 2015
Forecast type: FROM: standard forecast or significant change
Winds: from the E (80 degrees) at 10 MPH (9 knots; 4.7 m/s)
Visibility: 6 or more miles (10+ km)
Ceiling: 5000 feet AGL
Clouds: scattered clouds at 2500 feet AGL
overcast cloud deck at 5000 feet AGL
Weather: VCSH  (showers in vicinity)

Find All Airport Services Find A Hotel Find A Rental Car Find A Golf Course Find A Restaurant $100 Hamburger



FBO's on the Field
FBO Company Facility Photos Services Transportation Aviation Fuel Prices: Prices include tax
Catering Weather Repair Courtesy Rental Type 100LL JetA JetA+ MOGAS 8087
 
Base Operations at Page Field

Currently rated 4.8 by 2 people
FS:Avfuel
Last Updated: Feb-24
Login to update fuel prices
SS:
Contact Base Operations at Page FieldMore FBO Information
 
Add another FBO Facility Photos Catering Weather Repair Courtesy Rental Type 100LL JetA JetA+ MOGAS 8087
Services Transportation Aviation Fuel Prices: Prices include tax


model-print
model-print
model-print
model-print